sensor_id;sensor_type;location;lat;lon;timestamp;temperature;humidity
7167;DHT22;3625;51.762;14.320;2023-06-22T02:00:04;17.80;99.90
7167;DHT22;3625;51.762;14.320;2023-06-22T02:02:48;17.80;99.90
7167;DHT22;3625;51.762;14.320;2023-06-22T02:05:24;17.80;99.90
7167;DHT22;3625;51.762;14.320;2023-06-22T02:08:00;17.80;99.90
7167;DHT22;3625;51.762;14.320;2023-06-22T02:10:35;17.70;99.90
7167;DHT22;3625;51.762;14.320;2023-06-22T02:13:07;17.70;99.90
7167;DHT22;3625;51.762;14.320;2023-06-22T02:15:39;17.70;99.90
7167;DHT22;3625;51.762;14.320;2023-06-22T02:18:12;17.70;99.90
7167;DHT22;3625;51.762;14.320;2023-06-22T02:20:41;17.60;99.90
7167;DHT22;3625;51.762;14.320;2023-06-22T02:23:09;17.60;99.90
7167;DHT22;3625;51.762;14.320;2023-06-22T02:25:38;17.60;99.90
7167;DHT22;3625;51.762;14.320;2023-06-22T02:28:06;17.60;99.90
7167;DHT22;3625;51.762;14.320;2023-06-22T02:30:35;17.60;99.90
7167;DHT22;3625;51.762;14.320;2023-06-22T02:33:08;17.50;99.90
7167;DHT22;3625;51.762;14.320;2023-06-22T02:35:36;17.50;99.90
7167;DHT22;3625;51.762;14.320;2023-06-22T02:38:05;17.50;99.90
7167;DHT22;3625;51.762;14.320;2023-06-22T02:40:35;17.50;99.90
7167;DHT22;3625;51.762;14.320;2023-06-22T02:43:03;17.50;99.90
7167;DHT22;3625;51.762;14.320;2023-06-22T02:45:31;17.60;99.90
7167;DHT22;3625;51.762;14.320;2023-06-22T02:48:02;17.60;99.90
7167;DHT22;3625;51.762;14.320;2023-06-22T02:50:32;17.60;99.90
7167;DHT22;3625;51.762;14.320;2023-06-22T02:53:01;17.60;99.90
7167;DHT22;3625;51.762;14.320;2023-06-22T02:55:34;17.70;99.90
7167;DHT22;3625;51.762;14.320;2023-06-22T02:58:03;17.70;99.90
7167;DHT22;3625;51.762;14.320;2023-06-22T03:00:35;17.70;99.90
7167;DHT22;3625;51.762;14.320;2023-06-22T03:03:04;17.70;99.90
7167;DHT22;3625;51.762;14.320;2023-06-22T03:05:34;17.70;99.90
7167;DHT22;3625;51.762;14.320;2023-06-22T03:08:03;17.70;99.90
7167;DHT22;3625;51.762;14.320;2023-06-22T03:10:34;17.70;99.90
7167;DHT22;3625;51.762;14.320;2023-06-22T03:13:02;17.70;99.90
7167;DHT22;3625;51.762;14.320;2023-06-22T03:15:31;17.70;99.90
7167;DHT22;3625;51.762;14.320;2023-06-22T03:18:00;17.80;99.90
7167;DHT22;3625;51.762;14.320;2023-06-22T03:20:29;17.80;99.90
7167;DHT22;3625;51.762;14.320;2023-06-22T03:23:02;17.80;99.90
7167;DHT22;3625;51.762;14.320;2023-06-22T03:25:31;17.90;99.90
7167;DHT22;3625;51.762;14.320;2023-06-22T03:28:01;17.90;99.90
7167;DHT22;3625;51.762;14.320;2023-06-22T03:30:29;18.00;99.90
7167;DHT22;3625;51.762;14.320;2023-06-22T03:33:00;18.00;99.90
7167;DHT22;3625;51.762;14.320;2023-06-22T03:35:28;18.10;99.90
7167;DHT22;3625;51.762;14.320;2023-06-22T03:37:57;18.20;99.90
7167;DHT22;3625;51.762;14.320;2023-06-22T03:40:31;18.30;99.90
7167;DHT22;3625;51.762;14.320;2023-06-22T03:43:00;18.30;99.90
7167;DHT22;3625;51.762;14.320;2023-06-22T03:45:29;18.40;99.90
7167;DHT22;3625;51.762;14.320;2023-06-22T03:47:58;18.60;99.90
7167;DHT22;3625;51.762;14.320;2023-06-22T03:50:28;18.70;99.90
7167;DHT22;3625;51.762;14.320;2023-06-22T03:52:57;18.80;99.90
7167;DHT22;3625;51.762;14.320;2023-06-22T03:55:25;18.90;99.90
7167;DHT22;3625;51.762;14.320;2023-06-22T03:57:55;19.00;99.90
7167;DHT22;3625;51.762;14.320;2023-06-22T04:00:24;19.10;99.90
7167;DHT22;3625;51.762;14.320;2023-06-22T04:02:53;19.20;99.90
7167;DHT22;3625;51.762;14.320;2023-06-22T04:05:21;19.30;99.90
7167;DHT22;3625;51.762;14.320;2023-06-22T04:07:51;19.40;99.90
7167;DHT22;3625;51.762;14.320;2023-06-22T04:10:19;19.50;99.90
7167;DHT22;3625;51.762;14.320;2023-06-22T04:12:48;19.70;99.90
7167;DHT22;3625;51.762;14.320;2023-06-22T04:15:18;19.80;99.90
7167;DHT22;3625;51.762;14.320;2023-06-22T04:17:47;19.90;99.90
7167;DHT22;3625;51.762;14.320;2023-06-22T04:20:16;20.00;99.90
7167;DHT22;3625;51.762;14.320;2023-06-22T04:22:44;20.00;99.90
7167;DHT22;3625;51.762;14.320;2023-06-22T04:25:14;20.10;99.90
7167;DHT22;3625;51.762;14.320;2023-06-22T04:27:42;20.20;99.90
7167;DHT22;3625;51.762;14.320;2023-06-22T04:30:12;20.20;99.90
7167;DHT22;3625;51.762;14.320;2023-06-22T04:32:44;20.30;99.90
7167;DHT22;3625;51.762;14.320;2023-06-22T04:35:25;20.40;99.90
7167;DHT22;3625;51.762;14.320;2023-06-22T04:37:59;20.40;99.90
7167;DHT22;3625;51.762;14.320;2023-06-22T04:40:28;20.50;99.90
7167;DHT22;3625;51.762;14.320;2023-06-22T04:42:57;20.50;99.90
7167;DHT22;3625;51.762;14.320;2023-06-22T04:45:29;20.60;99.90
7167;DHT22;3625;51.762;14.320;2023-06-22T04:47:59;20.70;99.90
7167;DHT22;3625;51.762;14.320;2023-06-22T04:50:29;20.80;99.90
7167;DHT22;3625;51.762;14.320;2023-06-22T04:52:58;20.90;99.90
7167;DHT22;3625;51.762;14.320;2023-06-22T04:55:26;20.90;99.90
7167;DHT22;3625;51.762;14.320;2023-06-22T04:57:57;20.90;99.90
7167;DHT22;3625;51.762;14.320;2023-06-22T05:00:31;21.00;99.90
7167;DHT22;3625;51.762;14.320;2023-06-22T05:03:04;21.00;99.90
7167;DHT22;3625;51.762;14.320;2023-06-22T05:05:46;21.00;99.90
7167;DHT22;3625;51.762;14.320;2023-06-22T05:08:14;21.10;99.90
7167;DHT22;3625;51.762;14.320;2023-06-22T05:10:43;21.20;99.90
7167;DHT22;3625;51.762;14.320;2023-06-22T05:13:30;21.40;99.90
7167;DHT22;3625;51.762;14.320;2023-06-22T05:15:59;21.40;99.90
7167;DHT22;3625;51.762;14.320;2023-06-22T05:18:31;21.50;99.90
7167;DHT22;3625;51.762;14.320;2023-06-22T05:21:00;21.60;99.90
7167;DHT22;3625;51.762;14.320;2023-06-22T05:23:30;21.70;99.90
7167;DHT22;3625;51.762;14.320;2023-06-22T05:25:58;23.30;99.90
7167;DHT22;3625;51.762;14.320;2023-06-22T05:28:27;22.00;99.90
7167;DHT22;3625;51.762;14.320;2023-06-22T05:30:55;22.10;99.90
7167;DHT22;3625;51.762;14.320;2023-06-22T05:33:24;22.30;99.90
7167;DHT22;3625;51.762;14.320;2023-06-22T05:35:54;22.40;85.40
7167;DHT22;3625;51.762;14.320;2023-06-22T05:38:22;22.60;1.00
7167;DHT22;3625;51.762;14.320;2023-06-22T05:40:51;22.70;1.00
7167;DHT22;3625;51.762;14.320;2023-06-22T05:43:19;22.80;1.00
7167;DHT22;3625;51.762;14.320;2023-06-22T05:45:48;22.90;99.90
7167;DHT22;3625;51.762;14.320;2023-06-22T05:48:16;23.00;99.90
7167;DHT22;3625;51.762;14.320;2023-06-22T05:50:45;23.10;1.00
7167;DHT22;3625;51.762;14.320;2023-06-22T05:53:15;23.20;1.00
7167;DHT22;3625;51.762;14.320;2023-06-22T05:55:43;23.20;1.00
7167;DHT22;3625;51.762;14.320;2023-06-22T05:58:12;23.30;1.00
7167;DHT22;3625;51.762;14.320;2023-06-22T06:00:41;23.40;1.00
7167;DHT22;3625;51.762;14.320;2023-06-22T06:03:11;23.50;1.00
7167;DHT22;3625;51.762;14.320;2023-06-22T06:05:44;23.60;1.00
7167;DHT22;3625;51.762;14.320;2023-06-22T06:08:14;23.70;1.00
7167;DHT22;3625;51.762;14.320;2023-06-22T06:10:42;23.80;99.90
7167;DHT22;3625;51.762;14.320;2023-06-22T06:13:11;24.00;99.90
7167;DHT22;3625;51.762;14.320;2023-06-22T06:15:40;24.00;99.90
7167;DHT22;3625;51.762;14.320;2023-06-22T06:18:08;24.10;99.90
7167;DHT22;3625;51.762;14.320;2023-06-22T06:20:37;25.50;1.00
7167;DHT22;3625;51.762;14.320;2023-06-22T06:23:05;24.10;1.00
7167;DHT22;3625;51.762;14.320;2023-06-22T06:25:35;24.10;72.20
7167;DHT22;3625;51.762;14.320;2023-06-22T06:28:04;24.30;1.00
7167;DHT22;3625;51.762;14.320;2023-06-22T06:30:32;24.50;1.00
7167;DHT22;3625;51.762;14.320;2023-06-22T06:33:04;24.60;99.90
7167;DHT22;3625;51.762;14.320;2023-06-22T06:35:36;24.80;1.00
7167;DHT22;3625;51.762;14.320;2023-06-22T06:38:05;25.00;1.00
7167;DHT22;3625;51.762;14.320;2023-06-22T06:40:34;25.20;1.00
7167;DHT22;3625;51.762;14.320;2023-06-22T06:43:06;25.30;99.90
7167;DHT22;3625;51.762;14.320;2023-06-22T06:45:35;25.40;99.90
7167;DHT22;3625;51.762;14.320;2023-06-22T06:48:03;25.40;1.00
7167;DHT22;3625;51.762;14.320;2023-06-22T06:50:32;25.30;51.90
7167;DHT22;3625;51.762;14.320;2023-06-22T06:53:01;25.20;79.10
7167;DHT22;3625;51.762;14.320;2023-06-22T06:55:30;25.00;1.00
7167;DHT22;3625;51.762;14.320;2023-06-22T06:58:02;25.00;99.90
7167;DHT22;3625;51.762;14.320;2023-06-22T07:00:34;25.20;1.00
7167;DHT22;3625;51.762;14.320;2023-06-22T07:03:03;25.20;99.90
7167;DHT22;3625;51.762;14.320;2023-06-22T07:05:34;25.20;1.00
7167;DHT22;3625;51.762;14.320;2023-06-22T07:08:02;25.30;99.90
7167;DHT22;3625;51.762;14.320;2023-06-22T07:10:31;25.40;1.00
7167;DHT22;3625;51.762;14.320;2023-06-22T07:13:01;25.50;99.90
7167;DHT22;3625;51.762;14.320;2023-06-22T07:15:30;25.70;99.90
7167;DHT22;3625;51.762;14.320;2023-06-22T07:17:58;25.70;1.00
7167;DHT22;3625;51.762;14.320;2023-06-22T07:20:27;25.80;99.90
7167;DHT22;3625;51.762;14.320;2023-06-22T07:22:56;25.60;99.90
7167;DHT22;3625;51.762;14.320;2023-06-22T07:25:25;25.70;99.90
7167;DHT22;3625;51.762;14.320;2023-06-22T07:27:59;25.80;1.00
7167;DHT22;3625;51.762;14.320;2023-06-22T07:30:30;26.10;1.00
7167;DHT22;3625;51.762;14.320;2023-06-22T07:33:01;26.30;1.00
7167;DHT22;3625;51.762;14.320;2023-06-22T07:35:31;26.80;1.00
7167;DHT22;3625;51.762;14.320;2023-06-22T07:38:00;27.10;99.90
7167;DHT22;3625;51.762;14.320;2023-06-22T07:40:32;27.20;1.00
7167;DHT22;3625;51.762;14.320;2023-06-22T07:43:03;27.10;1.00
7167;DHT22;3625;51.762;14.320;2023-06-22T07:45:33;28.30;1.00
7167;DHT22;3625;51.762;14.320;2023-06-22T07:48:03;27.90;1.00
7167;DHT22;3625;51.762;14.320;2023-06-22T07:50:31;26.80;1.00
7167;DHT22;3625;51.762;14.320;2023-06-22T07:53:00;26.80;1.00
7167;DHT22;3625;51.762;14.320;2023-06-22T07:55:29;26.70;1.00
7167;DHT22;3625;51.762;14.320;2023-06-22T07:57:58;26.70;1.00
7167;DHT22;3625;51.762;14.320;2023-06-22T08:00:28;26.80;99.90
7167;DHT22;3625;51.762;14.320;2023-06-22T08:02:56;26.90;99.90
7167;DHT22;3625;51.762;14.320;2023-06-22T08:05:25;27.10;99.90
7167;DHT22;3625;51.762;14.320;2023-06-22T08:07:56;27.70;1.00
7167;DHT22;3625;51.762;14.320;2023-06-22T08:10:25;28.50;99.90
7167;DHT22;3625;51.762;14.320;2023-06-22T08:12:53;29.20;99.90
7167;DHT22;3625;51.762;14.320;2023-06-22T08:15:22;29.80;1.00
7167;DHT22;3625;51.762;14.320;2023-06-22T08:17:53;30.20;1.00
7167;DHT22;3625;51.762;14.320;2023-06-22T08:20:22;30.60;1.00
7167;DHT22;3625;51.762;14.320;2023-06-22T08:22:50;30.80;1.00
7167;DHT22;3625;51.762;14.320;2023-06-22T08:25:19;30.90;10.80
7167;DHT22;3625;51.762;14.320;2023-06-22T08:27:47;30.80;99.90
7167;DHT22;3625;51.762;14.320;2023-06-22T08:30:16;31.10;1.00
7167;DHT22;3625;51.762;14.320;2023-06-22T08:32:45;31.30;1.00
7167;DHT22;3625;51.762;14.320;2023-06-22T08:35:15;31.40;1.00
7167;DHT22;3625;51.762;14.320;2023-06-22T08:37:44;31.40;99.90
7167;DHT22;3625;51.762;14.320;2023-06-22T08:40:18;31.20;99.90
7167;DHT22;3625;51.762;14.320;2023-06-22T08:42:48;31.10;99.90
7167;DHT22;3625;51.762;14.320;2023-06-22T08:45:17;31.00;99.90
7167;DHT22;3625;51.762;14.320;2023-06-22T08:47:45;30.90;1.00
7167;DHT22;3625;51.762;14.320;2023-06-22T08:50:17;30.80;99.90
7167;DHT22;3625;51.762;14.320;2023-06-22T08:52:46;30.80;99.90
7167;DHT22;3625;51.762;14.320;2023-06-22T08:55:15;30.90;99.90
7167;DHT22;3625;51.762;14.320;2023-06-22T08:57:43;31.00;99.90
7167;DHT22;3625;51.762;14.320;2023-06-22T09:00:13;31.20;99.90
7167;DHT22;3625;51.762;14.320;2023-06-22T09:02:44;31.20;99.90
7167;DHT22;3625;51.762;14.320;2023-06-22T09:05:15;31.40;99.90
7167;DHT22;3625;51.762;14.320;2023-06-22T09:07:44;31.10;99.90
7167;DHT22;3625;51.762;14.320;2023-06-22T09:10:13;30.80;99.90
7167;DHT22;3625;51.762;14.320;2023-06-22T09:12:44;30.50;99.90
7167;DHT22;3625;51.762;14.320;2023-06-22T09:15:13;30.70;99.90
7167;DHT22;3625;51.762;14.320;2023-06-22T09:17:45;31.20;99.90
7167;DHT22;3625;51.762;14.320;2023-06-22T09:20:16;31.70;99.90
7167;DHT22;3625;51.762;14.320;2023-06-22T09:22:45;32.10;99.90
7167;DHT22;3625;51.762;14.320;2023-06-22T09:25:14;32.70;99.90
7167;DHT22;3625;51.762;14.320;2023-06-22T09:27:43;33.00;99.90
7167;DHT22;3625;51.762;14.320;2023-06-22T09:30:12;33.10;99.90
7167;DHT22;3625;51.762;14.320;2023-06-22T09:32:43;33.10;99.90
7167;DHT22;3625;51.762;14.320;2023-06-22T09:35:12;33.10;99.90
7167;DHT22;3625;51.762;14.320;2023-06-22T09:37:42;32.80;99.90
7167;DHT22;3625;51.762;14.320;2023-06-22T09:40:12;32.70;99.90
7167;DHT22;3625;51.762;14.320;2023-06-22T09:42:44;32.70;99.90
7167;DHT22;3625;51.762;14.320;2023-06-22T09:45:12;32.30;99.90
7167;DHT22;3625;51.762;14.320;2023-06-22T09:47:41;31.90;99.90
7167;DHT22;3625;51.762;14.320;2023-06-22T09:50:10;31.40;99.90
7167;DHT22;3625;51.762;14.320;2023-06-22T09:52:39;31.50;99.90
7167;DHT22;3625;51.762;14.320;2023-06-22T09:55:16;31.80;99.90
7167;DHT22;3625;51.762;14.320;2023-06-22T09:57:44;32.60;99.90
7167;DHT22;3625;51.762;14.320;2023-06-22T10:00:14;33.30;99.90
7167;DHT22;3625;51.762;14.320;2023-06-22T10:02:46;33.40;99.90
7167;DHT22;3625;51.762;14.320;2023-06-22T10:05:15;33.10;99.90
7167;DHT22;3625;51.762;14.320;2023-06-22T10:07:44;33.40;99.90
7167;DHT22;3625;51.762;14.320;2023-06-22T10:10:13;33.70;99.90
7167;DHT22;3625;51.762;14.320;2023-06-22T10:12:46;33.90;99.90
7167;DHT22;3625;51.762;14.320;2023-06-22T10:15:15;34.10;99.90
7167;DHT22;3625;51.762;14.320;2023-06-22T10:17:45;33.90;99.90
7167;DHT22;3625;51.762;14.320;2023-06-22T10:20:13;33.80;99.90
7167;DHT22;3625;51.762;14.320;2023-06-22T10:22:45;34.20;99.90
7167;DHT22;3625;51.762;14.320;2023-06-22T10:25:13;34.20;99.90
7167;DHT22;3625;51.762;14.320;2023-06-22T10:27:44;34.40;99.90
7167;DHT22;3625;51.762;14.320;2023-06-22T10:30:13;34.70;99.90
7167;DHT22;3625;51.762;14.320;2023-06-22T10:32:42;34.70;99.90
7167;DHT22;3625;51.762;14.320;2023-06-22T10:35:11;34.20;99.90
7167;DHT22;3625;51.762;14.320;2023-06-22T10:37:43;33.90;99.90
7167;DHT22;3625;51.762;14.320;2023-06-22T10:40:14;33.70;99.90
7167;DHT22;3625;51.762;14.320;2023-06-22T10:42:45;33.60;99.90
7167;DHT22;3625;51.762;14.320;2023-06-22T10:45:13;33.80;99.90
7167;DHT22;3625;51.762;14.320;2023-06-22T10:47:42;34.20;99.90
7167;DHT22;3625;51.762;14.320;2023-06-22T10:50:11;34.40;99.90
7167;DHT22;3625;51.762;14.320;2023-06-22T10:52:40;34.70;99.90
7167;DHT22;3625;51.762;14.320;2023-06-22T10:55:10;34.90;99.90
7167;DHT22;3625;51.762;14.320;2023-06-22T10:57:38;34.20;99.90
7167;DHT22;3625;51.762;14.320;2023-06-22T11:00:14;34.00;99.90
7167;DHT22;3625;51.762;14.320;2023-06-22T11:02:43;33.60;99.90
7167;DHT22;3625;51.762;14.320;2023-06-22T11:05:12;33.50;99.90
7167;DHT22;3625;51.762;14.320;2023-06-22T11:07:42;33.00;99.90
7167;DHT22;3625;51.762;14.320;2023-06-22T11:10:13;32.60;99.90
7167;DHT22;3625;51.762;14.320;2023-06-22T11:12:41;32.20;99.90
7167;DHT22;3625;51.762;14.320;2023-06-22T11:15:12;32.20;99.90
7167;DHT22;3625;51.762;14.320;2023-06-22T11:17:40;32.20;99.90
7167;DHT22;3625;51.762;14.320;2023-06-22T11:20:09;32.50;99.90
7167;DHT22;3625;51.762;14.320;2023-06-22T11:22:39;32.90;99.90
7167;DHT22;3625;51.762;14.320;2023-06-22T11:25:10;32.80;99.90
7167;DHT22;3625;51.762;14.320;2023-06-22T11:27:39;33.00;99.90
7167;DHT22;3625;51.762;14.320;2023-06-22T11:30:09;33.10;99.90
7167;DHT22;3625;51.762;14.320;2023-06-22T11:32:39;33.40;99.90
7167;DHT22;3625;51.762;14.320;2023-06-22T11:35:08;33.20;99.90
7167;DHT22;3625;51.762;14.320;2023-06-22T11:37:38;33.10;99.90
7167;DHT22;3625;51.762;14.320;2023-06-22T11:40:08;33.50;99.90
7167;DHT22;3625;51.762;14.320;2023-06-22T11:42:38;34.00;99.90
7167;DHT22;3625;51.762;14.320;2023-06-22T11:45:08;34.00;99.90
7167;DHT22;3625;51.762;14.320;2023-06-22T11:47:36;34.20;99.90
7167;DHT22;3625;51.762;14.320;2023-06-22T11:50:08;34.00;99.90
7167;DHT22;3625;51.762;14.320;2023-06-22T11:52:38;34.10;99.90
7167;DHT22;3625;51.762;14.320;2023-06-22T11:55:08;33.80;99.90
7167;DHT22;3625;51.762;14.320;2023-06-22T11:57:38;33.60;99.90
7167;DHT22;3625;51.762;14.320;2023-06-22T12:00:23;33.70;99.90
7167;DHT22;3625;51.762;14.320;2023-06-22T12:02:56;33.10;99.90
7167;DHT22;3625;51.762;14.320;2023-06-22T12:05:28;33.70;99.90
7167;DHT22;3625;51.762;14.320;2023-06-22T12:07:57;33.90;99.90
7167;DHT22;3625;51.762;14.320;2023-06-22T12:10:26;34.00;99.90
7167;DHT22;3625;51.762;14.320;2023-06-22T12:12:56;34.00;99.90
7167;DHT22;3625;51.762;14.320;2023-06-22T12:15:27;34.10;99.90
7167;DHT22;3625;51.762;14.320;2023-06-22T12:17:56;34.10;99.90
7167;DHT22;3625;51.762;14.320;2023-06-22T12:20:24;34.10;99.90
7167;DHT22;3625;51.762;14.320;2023-06-22T12:22:55;33.10;99.90
7167;DHT22;3625;51.762;14.320;2023-06-22T12:25:25;34.30;99.90
7167;DHT22;3625;51.762;14.320;2023-06-22T12:27:54;34.20;99.90
7167;DHT22;3625;51.762;14.320;2023-06-22T12:30:23;34.20;99.90
7167;DHT22;3625;51.762;14.320;2023-06-22T12:32:52;34.00;99.90
7167;DHT22;3625;51.762;14.320;2023-06-22T12:35:23;33.90;99.90
7167;DHT22;3625;51.762;14.320;2023-06-22T12:37:52;34.10;99.90
7167;DHT22;3625;51.762;14.320;2023-06-22T12:40:22;34.20;99.90
7167;DHT22;3625;51.762;14.320;2023-06-22T12:42:51;34.20;99.90
7167;DHT22;3625;51.762;14.320;2023-06-22T12:45:20;34.30;99.90
7167;DHT22;3625;51.762;14.320;2023-06-22T12:47:49;34.20;99.90
7167;DHT22;3625;51.762;14.320;2023-06-22T12:50:19;34.10;99.90
7167;DHT22;3625;51.762;14.320;2023-06-22T12:52:48;34.30;99.90
7167;DHT22;3625;51.762;14.320;2023-06-22T12:55:17;34.30;99.90
7167;DHT22;3625;51.762;14.320;2023-06-22T12:57:47;34.00;99.90
7167;DHT22;3625;51.762;14.320;2023-06-22T13:00:17;33.90;99.90
7167;DHT22;3625;51.762;14.320;2023-06-22T13:02:46;33.70;99.90
7167;DHT22;3625;51.762;14.320;2023-06-22T13:05:15;33.50;99.90
7167;DHT22;3625;51.762;14.320;2023-06-22T13:07:44;32.80;99.90
7167;DHT22;3625;51.762;14.320;2023-06-22T13:10:14;32.80;99.90
7167;DHT22;3625;51.762;14.320;2023-06-22T13:12:43;32.90;99.90
7167;DHT22;3625;51.762;14.320;2023-06-22T13:15:13;33.30;99.90
7167;DHT22;3625;51.762;14.320;2023-06-22T13:17:42;33.50;99.90
7167;DHT22;3625;51.762;14.320;2023-06-22T13:20:11;33.60;99.90
7167;DHT22;3625;51.762;14.320;2023-06-22T13:22:40;33.80;99.90
7167;DHT22;3625;51.762;14.320;2023-06-22T13:25:24;33.80;99.90
7167;DHT22;3625;51.762;14.320;2023-06-22T13:27:54;33.90;99.90
7167;DHT22;3625;51.762;14.320;2023-06-22T13:30:24;33.70;99.90
7167;DHT22;3625;51.762;14.320;2023-06-22T13:32:53;33.50;99.90
7167;DHT22;3625;51.762;14.320;2023-06-22T13:35:22;33.50;99.90
7167;DHT22;3625;51.762;14.320;2023-06-22T13:37:50;33.10;99.90
7167;DHT22;3625;51.762;14.320;2023-06-22T13:40:19;32.70;99.90
7167;DHT22;3625;51.762;14.320;2023-06-22T13:42:48;32.70;99.90
7167;DHT22;3625;51.762;14.320;2023-06-22T13:45:16;32.50;99.90
7167;DHT22;3625;51.762;14.320;2023-06-22T13:47:47;32.50;99.90
7167;DHT22;3625;51.762;14.320;2023-06-22T13:50:16;32.80;99.90
7167;DHT22;3625;51.762;14.320;2023-06-22T13:52:45;33.10;99.90
7167;DHT22;3625;51.762;14.320;2023-06-22T13:55:14;33.50;99.90
7167;DHT22;3625;51.762;14.320;2023-06-22T13:57:43;33.80;99.90
7167;DHT22;3625;51.762;14.320;2023-06-22T14:00:12;33.50;99.90
7167;DHT22;3625;51.762;14.320;2023-06-22T14:02:42;33.00;99.90
7167;DHT22;3625;51.762;14.320;2023-06-22T14:05:12;32.60;99.90
7167;DHT22;3625;51.762;14.320;2023-06-22T14:07:41;32.40;99.90
7167;DHT22;3625;51.762;14.320;2023-06-22T14:10:10;32.20;99.90
7167;DHT22;3625;51.762;14.320;2023-06-22T14:12:38;31.50;99.90
7167;DHT22;3625;51.762;14.320;2023-06-22T14:15:07;32.30;99.90
7167;DHT22;3625;51.762;14.320;2023-06-22T14:17:36;32.50;99.90
7167;DHT22;3625;51.762;14.320;2023-06-22T14:20:06;32.70;99.90
7167;DHT22;3625;51.762;14.320;2023-06-22T14:22:37;32.80;99.90
7167;DHT22;3625;51.762;14.320;2023-06-22T14:25:07;33.10;99.90
7167;DHT22;3625;51.762;14.320;2023-06-22T14:27:35;33.30;99.90
7167;DHT22;3625;51.762;14.320;2023-06-22T14:30:05;33.20;99.90
7167;DHT22;3625;51.762;14.320;2023-06-22T14:32:34;32.90;99.90
7167;DHT22;3625;51.762;14.320;2023-06-22T14:35:04;32.70;99.90
7167;DHT22;3625;51.762;14.320;2023-06-22T14:37:33;32.50;99.90
7167;DHT22;3625;51.762;14.320;2023-06-22T14:40:03;32.50;99.90
7167;DHT22;3625;51.762;14.320;2023-06-22T14:42:32;32.40;99.90
7167;DHT22;3625;51.762;14.320;2023-06-22T14:45:00;32.20;99.90
7167;DHT22;3625;51.762;14.320;2023-06-22T14:47:29;32.20;99.90
7167;DHT22;3625;51.762;14.320;2023-06-22T14:49:57;32.30;99.90
7167;DHT22;3625;51.762;14.320;2023-06-22T14:52:27;32.30;99.90
7167;DHT22;3625;51.762;14.320;2023-06-22T14:54:55;32.20;99.90
7167;DHT22;3625;51.762;14.320;2023-06-22T14:57:25;32.20;99.90
7167;DHT22;3625;51.762;14.320;2023-06-22T14:59:54;32.50;99.90
7167;DHT22;3625;51.762;14.320;2023-06-22T15:02:22;32.60;99.90
7167;DHT22;3625;51.762;14.320;2023-06-22T15:04:51;32.80;99.90
7167;DHT22;3625;51.762;14.320;2023-06-22T15:07:20;32.90;99.90
7167;DHT22;3625;51.762;14.320;2023-06-22T15:09:48;32.90;99.90
7167;DHT22;3625;51.762;14.320;2023-06-22T15:12:17;32.70;99.90
7167;DHT22;3625;51.762;14.320;2023-06-22T15:14:48;32.40;99.90
7167;DHT22;3625;51.762;14.320;2023-06-22T15:17:17;32.20;99.90
7167;DHT22;3625;51.762;14.320;2023-06-22T15:19:45;32.10;99.90
7167;DHT22;3625;51.762;14.320;2023-06-22T15:22:14;32.00;99.90
7167;DHT22;3625;51.762;14.320;2023-06-22T15:24:45;31.80;99.90
7167;DHT22;3625;51.762;14.320;2023-06-22T15:27:15;31.70;99.90
7167;DHT22;3625;51.762;14.320;2023-06-22T15:29:43;31.80;99.90
7167;DHT22;3625;51.762;14.320;2023-06-22T15:32:13;33.30;99.90
7167;DHT22;3625;51.762;14.320;2023-06-22T15:34:41;32.00;99.90
7167;DHT22;3625;51.762;14.320;2023-06-22T15:37:10;32.10;99.90
7167;DHT22;3625;51.762;14.320;2023-06-22T15:39:39;32.20;99.90
7167;DHT22;3625;51.762;14.320;2023-06-22T15:42:08;32.20;99.90
7167;DHT22;3625;51.762;14.320;2023-06-22T15:44:36;32.30;99.90
7167;DHT22;3625;51.762;14.320;2023-06-22T15:47:05;32.40;99.90
7167;DHT22;3625;51.762;14.320;2023-06-22T15:49:36;32.50;99.90
7167;DHT22;3625;51.762;14.320;2023-06-22T15:52:06;32.50;99.90
7167;DHT22;3625;51.762;14.320;2023-06-22T15:54:35;32.50;99.90
7167;DHT22;3625;51.762;14.320;2023-06-22T15:57:03;32.50;99.90
7167;DHT22;3625;51.762;14.320;2023-06-22T15:59:32;32.40;99.90
7167;DHT22;3625;51.762;14.320;2023-06-22T16:02:01;32.40;99.90
7167;DHT22;3625;51.762;14.320;2023-06-22T16:04:29;32.50;99.90
7167;DHT22;3625;51.762;14.320;2023-06-22T16:06:59;32.80;99.90
7167;DHT22;3625;51.762;14.320;2023-06-22T16:09:28;33.00;99.90
7167;DHT22;3625;51.762;14.320;2023-06-22T16:11:58;33.10;99.90
7167;DHT22;3625;51.762;14.320;2023-06-22T16:14:26;33.00;99.90
7167;DHT22;3625;51.762;14.320;2023-06-22T16:16:55;33.10;99.90
7167;DHT22;3625;51.762;14.320;2023-06-22T16:19:23;33.20;99.90
7167;DHT22;3625;51.762;14.320;2023-06-22T16:21:52;33.40;99.90
7167;DHT22;3625;51.762;14.320;2023-06-22T16:24:23;33.10;99.90
7167;DHT22;3625;51.762;14.320;2023-06-22T16:26:52;32.60;99.90
7167;DHT22;3625;51.762;14.320;2023-06-22T16:29:21;32.30;99.90
7167;DHT22;3625;51.762;14.320;2023-06-22T16:31:50;32.10;99.90
7167;DHT22;3625;51.762;14.320;2023-06-22T16:34:19;31.90;99.90
7167;DHT22;3625;51.762;14.320;2023-06-22T16:36:47;31.70;99.90
7167;DHT22;3625;51.762;14.320;2023-06-22T16:39:19;31.50;99.90
7167;DHT22;3625;51.762;14.320;2023-06-22T16:41:49;31.30;99.90
7167;DHT22;3625;51.762;14.320;2023-06-22T16:44:17;31.20;99.90
7167;DHT22;3625;51.762;14.320;2023-06-22T16:46:46;31.20;99.90
7167;DHT22;3625;51.762;14.320;2023-06-22T16:49:14;31.50;99.90
7167;DHT22;3625;51.762;14.320;2023-06-22T16:51:43;31.90;99.90
7167;DHT22;3625;51.762;14.320;2023-06-22T16:54:12;32.00;99.90
7167;DHT22;3625;51.762;14.320;2023-06-22T16:56:42;31.90;99.90
7167;DHT22;3625;51.762;14.320;2023-06-22T16:59:14;31.70;99.90
7167;DHT22;3625;51.762;14.320;2023-06-22T17:01:49;31.70;99.90
7167;DHT22;3625;51.762;14.320;2023-06-22T17:04:21;32.10;99.90
7167;DHT22;3625;51.762;14.320;2023-06-22T17:06:56;32.20;99.90
7167;DHT22;3625;51.762;14.320;2023-06-22T17:09:27;32.20;99.90
7167;DHT22;3625;51.762;14.320;2023-06-22T17:12:00;32.20;99.90
7167;DHT22;3625;51.762;14.320;2023-06-22T17:14:32;32.20;99.90
7167;DHT22;3625;51.762;14.320;2023-06-22T17:17:02;32.10;99.90
7167;DHT22;3625;51.762;14.320;2023-06-22T17:19:31;31.90;99.90
7167;DHT22;3625;51.762;14.320;2023-06-22T17:22:00;32.00;99.90
7167;DHT22;3625;51.762;14.320;2023-06-22T17:24:29;31.90;99.90
7167;DHT22;3625;51.762;14.320;2023-06-22T17:26:58;31.90;99.90
7167;DHT22;3625;51.762;14.320;2023-06-22T17:29:28;31.70;99.90
7167;DHT22;3625;51.762;14.320;2023-06-22T17:32:01;31.40;99.90
7167;DHT22;3625;51.762;14.320;2023-06-22T17:34:31;31.00;99.90
7167;DHT22;3625;51.762;14.320;2023-06-22T17:37:01;30.60;99.90
7167;DHT22;3625;51.762;14.320;2023-06-22T17:39:30;30.30;99.90
7167;DHT22;3625;51.762;14.320;2023-06-22T17:41:58;30.10;99.90
7167;DHT22;3625;51.762;14.320;2023-06-22T17:44:27;29.80;99.90
7167;DHT22;3625;51.762;14.320;2023-06-22T17:46:57;29.60;99.90
7167;DHT22;3625;51.762;14.320;2023-06-22T17:49:29;29.40;99.90
7167;DHT22;3625;51.762;14.320;2023-06-22T17:52:00;28.20;99.90
7167;DHT22;3625;51.762;14.320;2023-06-22T17:54:29;29.40;99.90
7167;DHT22;3625;51.762;14.320;2023-06-22T17:57:14;29.40;99.90
7167;DHT22;3625;51.762;14.320;2023-06-22T17:59:48;29.50;99.90
7167;DHT22;3625;51.762;14.320;2023-06-22T18:02:21;29.50;99.90